x

Aberporth (03502) Weather Station

10:00 - Tue 9th Feb 2016 All times are GMT.

  • Wind
    37mph, 56mph gusts
  • Ar Temp 40°f
  • Sea Pressure 990mb
  • Aberporth
  • Aberporth

More Historic Weather Station data

Upgrade to MSW Pro to gain access to the past 30 days of data for over 8000 Wavebouys and Weather Stations around the globe.

Join Pro

Comparision Forecast

View Surf forecast
   
Ter 02/09 10:00 37 56 mph 990mb 40f
9:00 40 55 mph 989mb 41f
8:00 36 49 mph 988mb 42f
6:00 39 53 mph 987mb 40f
5:00 36 47 mph 986mb 40f
4:00 31 47 mph 986mb 38f
2:00 28 46 mph 985mb 38f
1:00 33 47 mph 985mb 38f
12:00 30 40 mph 986mb 42f
10:00 25 33 mph 985mb 41f
9:00 24 33 mph 986mb 41f
8:00 22 32 mph 986mb 40f
7:00 25 32 mph 986mb 41f
6:00 24 33 mph 987mb 41f
5:00 17 29 mph 987mb 39f
4:00 19 36 mph 988mb 40f
2:00 25 36 mph 990mb 42f
1:00 26 43 mph 991mb 42f
Seg 02/08 11:00 30 43 mph 992mb 43f
10:00 31 46 mph 992mb 43f
8:00 41 52 mph 992mb 43f
7:00 38 54 mph 991mb 44f
6:00 38 59 mph 990mb 45f
4:00 47 64 mph 987mb 46f
3:00 48 66 mph 986mb 46f
2:00 44 64 mph 984mb 46f
1:00 51 67 mph 982mb 46f
12:00 46 68 mph 980mb 46f
11:00 45 70 mph 979mb 46f
10:00 51 68 mph 978mb 46f
9:00 49 71 mph 977mb 46f
8:00 46 64 mph 976mb 45f
7:00 44 69 mph 976mb 44f
6:00 41 61 mph 977mb 45f
4:00 39 61 mph 977mb 45f
3:00 37 54 mph 978mb 43f
2:00 44 64 mph 979mb 41f
1:00 31 63 mph 979mb 42f
Dom 02/07 11:00 36 60 mph 980mb 45f
10:00 38 61 mph 980mb 44f
9:00 34 61 mph 979mb 48f
8:00 33 48 mph 979mb 49f
7:00 33 48 mph 980mb 49f
6:00 25 45 mph 982mb 46f
4:00 25 36 mph 986mb 42f
3:00 19 40 mph 988mb 41f
2:00 29 43 mph 990mb 41f
1:00 28 37 mph 991mb 45f
12:00 25 34 mph 990mb 45f
11:00 23 37 mph 991mb 46f
10:00 24 43 mph 990mb 44f
9:00 30 43 mph 990mb 43f
7:00 36 47 mph 987mb 42f
6:00 26 39 mph 986mb 42f
5:00 16 31 mph 985mb 39f
4:00 16
mph
985mb 39f
3:00 19 31 mph 985mb 40f
2:00 19 29 mph 985mb 40f
1:00 14
mph
985mb 39f
Sáb 02/06 11:00 16 30 mph 984mb 42f
9:00 17 30 mph 983mb 43f
8:00 19
mph
982mb 44f
6:00 17 32 mph 982mb 45f
5:00 22 40 mph 981mb 45f
4:00 30 46 mph 980mb 48f
2:00 28 41 mph 982mb 48f
1:00 24 37 mph 984mb 47f
11:00 16 30 mph 988mb 45f
10:00 21 37 mph 989mb 45f
9:00 22 32 mph 990mb 45f
7:00 13
mph
995mb 44f
6:00 8
mph
997mb 43f
5:00 10
mph
999mb 42f
4:00 14
mph
1000mb 41f
2:00 15
mph
1002mb 40f
1:00 11
mph
1004mb 40f
Sex 02/05 11:00 10
mph
1006mb 40f